Time;durP1;ratioP1;P1;durP2;ratioP2;P2;SDS_P1;SDS_P2;PMS_P1;PMS_P2;Temp;Humidity;BMP_temperature;BMP_pressure;BME280_temperature;BME280_humidity;BME280_pressure;Samples;Min_cycle;Max_cycle;Signal;HPM_P1;HPM_P2
2023/06/26 00:00:56;;;;;;;7.10;6.47;;;21.00;99.90;;;;;;5024840;28;20041;-86
2023/06/26 00:03:23;;;;;;;8.82;6.93;;;21.00;99.90;;;;;;5047664;28;20037;-86
2023/06/26 00:05:50;;;;;;;7.85;7.03;;;21.00;99.90;;;;;;5026953;28;20163;-86
2023/06/26 00:08:16;;;;;;;7.45;6.75;;;21.00;99.90;;;;;;5027394;28;20065;-86
2023/06/26 00:10:41;;;;;;;7.78;6.85;;;21.20;99.90;;;;;;5023042;28;20075;-86
2023/06/26 00:13:07;;;;;;;9.57;6.55;;;21.00;99.90;;;;;;5019755;28;20471;-86
2023/06/26 00:15:32;;;;;;;7.35;6.50;;;21.00;99.90;;;;;;5025957;28;20045;-86
2023/06/26 00:17:59;;;;;;;10.07;6.65;;;21.10;99.90;;;;;;5039448;28;20048;-86
2023/06/26 00:20:25;;;;;;;7.65;6.63;;;21.10;99.90;;;;;;5024748;28;20043;-86
2023/06/26 00:22:50;;;;;;;7.75;6.97;;;21.20;99.90;;;;;;5028058;28;20029;-86
2023/06/26 00:25:16;;;;;;;7.68;6.90;;;21.10;99.90;;;;;;5044924;28;21147;-86
2023/06/26 00:27:44;;;;;;;7.15;6.47;;;21.20;99.90;;;;;;5045350;28;20045;-86
2023/06/26 00:30:10;;;;;;;6.90;6.20;;;21.20;99.90;;;;;;5026416;28;20187;-86
2023/06/26 00:32:36;;;;;;;8.70;6.60;;;21.20;99.90;;;;;;5043439;28;20052;-86
2023/06/26 00:35:01;;;;;;;7.93;7.05;;;21.40;99.90;;;;;;5039036;28;20041;-87
2023/06/26 00:37:27;;;;;;;6.82;6.25;;;21.30;99.90;;;;;;5040146;28;20040;-86
2023/06/26 00:39:52;;;;;;;8.68;7.25;;;21.30;99.90;;;;;;5043614;28;20115;-86
2023/06/26 00:42:18;;;;;;;7.40;6.70;;;21.30;99.90;;;;;;5041328;28;20037;-86
2023/06/26 00:44:44;;;;;;;9.27;6.82;;;21.30;99.90;;;;;;5041764;28;20411;-86
2023/06/26 00:47:14;;;;;;;6.68;6.05;;;21.40;99.90;;;;;;5040197;28;20592;-85
2023/06/26 00:49:39;;;;;;;7.80;7.03;;;21.40;99.90;;;;;;5037611;28;20041;-86
2023/06/26 00:52:06;;;;;;;7.80;6.97;;;21.40;99.90;;;;;;5023101;28;20048;-86
2023/06/26 00:54:31;;;;;;;8.63;7.93;;;21.40;99.90;;;;;;5021640;28;20049;-86
2023/06/26 00:56:57;;;;;;;10.10;6.97;;;21.40;99.90;;;;;;5022881;28;20047;-86
2023/06/26 00:59:23;;;;;;;10.70;7.25;;;21.40;99.90;;;;;;5044058;28;20068;-86
2023/06/26 01:01:48;;;;;;;7.40;6.80;;;21.40;99.90;;;;;;5038278;28;20126;-86
2023/06/26 01:04:17;;;;;;;8.25;7.25;;;21.30;99.90;;;;;;5041545;28;20087;-86
2023/06/26 01:06:49;;;;;;;7.70;7.05;;;21.30;99.90;;;;;;5038258;28;20040;-86
2023/06/26 01:09:22;;;;;;;9.45;7.07;;;21.30;99.90;;;;;;5041829;28;20045;-85
2023/06/26 01:11:55;;;;;;;8.27;7.57;;;21.30;99.90;;;;;;5026447;28;20087;-86
2023/06/26 01:14:21;;;;;;;7.63;6.97;;;21.30;99.90;;;;;;5025402;28;20049;-86
2023/06/26 01:16:49;;;;;;;8.50;7.70;;;21.30;99.90;;;;;;5029239;28;20077;-86
2023/06/26 01:19:26;;;;;;;8.85;7.90;;;21.40;99.90;;;;;;5040974;28;20492;-86
2023/06/26 01:22:02;;;;;;;10.80;6.95;;;21.20;99.90;;;;;;5041685;28;20037;-86
2023/06/26 01:24:33;;;;;;;7.45;6.85;;;21.30;99.90;;;;;;5019925;28;20041;-86
2023/06/26 01:27:00;;;;;;;7.95;7.25;;;21.10;99.90;;;;;;5042593;28;20044;-86
2023/06/26 01:29:28;;;;;;;8.77;7.97;;;21.20;99.90;;;;;;5028169;28;20073;-86
2023/06/26 01:31:54;;;;;;;8.43;7.60;;;21.10;99.90;;;;;;5028377;28;20075;-86
2023/06/26 01:34:20;;;;;;;8.98;8.20;;;21.10;99.90;;;;;;5040554;28;20381;-86
2023/06/26 01:36:46;;;;;;;8.80;7.90;;;21.10;99.90;;;;;;5028158;28;20123;-86
2023/06/26 01:39:18;;;;;;;8.07;7.28;;;21.10;99.90;;;;;;5038162;28;20128;-86
2023/06/26 01:41:44;;;;;;;8.65;7.75;;;21.10;99.90;;;;;;5042058;28;20039;-86
2023/06/26 01:44:29;;;;;;;8.57;7.82;;;21.10;99.90;;;;;;5024988;28;20088;-85
2023/06/26 01:47:10;;;;;;;8.80;8.05;;;21.10;99.90;;;;;;5030214;28;20194;-86
2023/06/26 01:50:11;;;;;;;8.95;7.63;;;21.10;99.90;;;;;;5026746;28;20709;-86
2023/06/26 01:52:55;;;;;;;7.95;7.32;;;21.10;99.90;;;;;;5028236;28;20041;-86
2023/06/26 01:55:41;;;;;;;9.45;8.55;;;21.10;99.90;;;;;;5043821;28;20052;-86
2023/06/26 01:58:08;;;;;;;8.48;7.78;;;21.10;99.90;;;;;;5028480;28;20111;-86
2023/06/26 02:00:34;;;;;;;9.32;8.43;;;21.10;99.90;;;;;;5044196;28;20087;-86
2023/06/26 02:03:00;;;;;;;9.85;8.48;;;21.10;99.90;;;;;;5025334;28;20075;-86
2023/06/26 02:05:25;;;;;;;8.38;7.57;;;21.10;99.90;;;;;;5043744;28;20414;-86
2023/06/26 02:07:51;;;;;;;10.07;8.45;;;21.20;99.90;;;;;;5046629;28;20045;-87
2023/06/26 02:10:17;;;;;;;10.80;8.70;;;21.20;99.90;;;;;;5049279;28;20549;-86
2023/06/26 02:12:44;;;;;;;10.10;9.20;;;21.00;99.90;;;;;;5026556;28;20033;-87
2023/06/26 02:15:09;;;;;;;11.35;9.23;;;21.00;99.90;;;;;;5040861;28;20525;-86
2023/06/26 02:17:37;;;;;;;16.83;10.10;;;21.10;99.90;;;;;;5040514;28;20067;-86
2023/06/26 02:20:03;;;;;;;18.77;9.88;;;21.10;99.90;;;;;;5042320;28;20053;-86
2023/06/26 02:22:29;;;;;;;15.15;10.02;;;21.10;99.90;;;;;;5041412;28;20041;-86
2023/06/26 02:24:54;;;;;;;12.65;11.32;;;21.10;99.90;;;;;;5027614;28;20916;-86
2023/06/26 02:27:20;;;;;;;10.73;9.82;;;21.10;99.90;;;;;;5044040;28;20080;-86
2023/06/26 02:29:45;;;;;;;11.73;10.73;;;21.10;99.90;;;;;;5046422;28;20041;-86
2023/06/26 02:32:11;;;;;;;12.13;10.90;;;21.10;99.90;;;;;;5042907;28;20475;-86
2023/06/26 02:34:37;;;;;;;10.65;9.75;;;21.10;99.90;;;;;;5042327;28;20037;-86
2023/06/26 02:37:02;;;;;;;13.07;9.45;;;21.20;99.90;;;;;;5045252;28;20119;-86
2023/06/26 02:39:37;;;;;;;12.60;10.20;;;21.10;99.90;;;;;;5061270;28;20053;-86
2023/06/26 02:42:03;;;;;;;11.00;9.82;;;21.10;99.90;;;;;;5039844;28;20051;-85
2023/06/26 02:44:28;;;;;;;11.10;9.98;;;21.00;99.90;;;;;;5042208;28;20442;-86
2023/06/26 02:46:54;;;;;;;12.60;10.02;;;21.00;99.90;;;;;;5042029;28;20040;-86
2023/06/26 02:49:23;;;;;;;10.38;9.38;;;21.00;99.90;;;;;;5043848;28;20055;-86
2023/06/26 02:51:48;;;;;;;11.30;10.23;;;21.00;99.90;;;;;;5046020;28;20040;-85
2023/06/26 02:54:14;;;;;;;10.60;9.70;;;21.00;99.90;;;;;;5042653;28;20119;-86
2023/06/26 02:56:39;;;;;;;11.90;10.27;;;21.00;99.90;;;;;;5043176;28;20095;-86
2023/06/26 02:59:05;;;;;;;11.13;10.15;;;20.90;99.90;;;;;;5041113;28;20048;-86
2023/06/26 03:01:30;;;;;;;10.82;9.90;;;20.90;99.90;;;;;;5041817;28;20037;-86
2023/06/26 03:03:56;;;;;;;10.55;9.57;;;20.90;99.90;;;;;;5040562;28;20037;-86
2023/06/26 03:06:21;;;;;;;10.73;8.85;;;21.00;99.90;;;;;;5022613;28;20036;-85
2023/06/26 03:08:47;;;;;;;10.25;8.82;;;20.90;99.90;;;;;;5043805;28;20036;-86
2023/06/26 03:11:13;;;;;;;10.35;9.45;;;20.80;99.90;;;;;;5044929;28;20196;-86
2023/06/26 03:13:38;;;;;;;11.45;10.35;;;20.70;99.90;;;;;;5025040;28;20118;-86
2023/06/26 03:16:04;;;;;;;10.48;9.32;;;20.60;99.90;;;;;;5043751;28;20025;-86
2023/06/26 03:18:29;;;;;;;10.45;9.45;;;20.50;99.90;;;;;;5038878;28;20135;-85
2023/06/26 03:20:56;;;;;;;11.88;9.35;;;20.50;99.90;;;;;;5041202;28;20045;-85
2023/06/26 03:23:23;;;;;;;10.82;9.52;;;20.50;99.90;;;;;;5043776;28;20499;-86
2023/06/26 03:25:49;;;;;;;10.73;9.82;;;20.50;99.90;;;;;;5022477;28;20045;-86
2023/06/26 03:28:15;;;;;;;10.57;9.60;;;20.50;99.90;;;;;;5042472;28;20041;-85
2023/06/26 03:30:41;;;;;;;10.43;9.40;;;20.50;99.90;;;;;;5027274;28;20052;-85
2023/06/26 03:33:06;;;;;;;10.38;9.35;;;20.60;99.90;;;;;;5023621;28;20033;-84
2023/06/26 03:35:32;;;;;;;9.98;9.07;;;20.60;99.90;;;;;;5028839;28;20045;-85
2023/06/26 03:37:58;;;;;;;10.23;8.43;;;20.60;99.90;;;;;;5041942;28;20376;-85
2023/06/26 03:40:24;;;;;;;12.10;8.98;;;20.70;99.90;;;;;;5041422;28;20067;-85
2023/06/26 03:42:50;;;;;;;11.50;8.10;;;20.70;99.90;;;;;;5045747;28;20033;-85
2023/06/26 03:45:15;;;;;;;9.82;7.68;;;20.70;99.90;;;;;;5043821;28;20064;-85
2023/06/26 03:47:41;;;;;;;8.07;6.95;;;21.00;99.90;;;;;;5043878;28;20042;-85
2023/06/26 03:50:07;;;;;;;9.43;6.88;;;20.80;99.90;;;;;;5025623;28;20038;-85
2023/06/26 03:52:32;;;;;;;9.82;7.13;;;20.90;99.90;;;;;;5043626;28;20147;-85
2023/06/26 03:54:58;;;;;;;8.32;7.43;;;20.90;99.90;;;;;;5043337;28;20041;-85
2023/06/26 03:57:24;;;;;;;11.40;7.22;;;21.00;99.90;;;;;;5040186;28;20227;-85
2023/06/26 03:59:50;;;;;;;7.72;6.05;;;21.00;99.90;;;;;;5025208;28;20045;-86
2023/06/26 04:02:15;;;;;;;8.30;6.78;;;21.10;99.90;;;;;;5026379;28;20045;-85
2023/06/26 04:04:41;;;;;;;8.13;7.15;;;21.30;99.90;;;;;;5043495;28;20047;-85
2023/06/26 04:07:06;;;;;;;8.75;7.32;;;21.20;99.90;;;;;;5044289;28;20037;-85
2023/06/26 04:09:32;;;;;;;9.25;7.00;;;21.30;99.90;;;;;;5043860;28;20044;-85
2023/06/26 04:11:57;;;;;;;7.53;6.60;;;21.40;99.90;;;;;;5023562;28;20115;-85
2023/06/26 04:14:23;;;;;;;8.77;6.68;;;21.50;99.90;;;;;;5043019;28;20133;-85
2023/06/26 04:16:48;;;;;;;7.25;6.55;;;21.60;99.90;;;;;;5040290;28;20086;-86
2023/06/26 04:19:14;;;;;;;7.95;5.70;;;21.70;99.90;;;;;;5041539;28;20036;-85
2023/06/26 04:21:40;;;;;;;9.13;8.23;;;21.60;99.90;;;;;;5039673;28;20091;-86
2023/06/26 04:24:06;;;;;;;7.57;6.82;;;21.60;99.90;;;;;;5042334;28;20056;-86
2023/06/26 04:26:31;;;;;;;8.65;7.82;;;21.60;99.90;;;;;;5042121;28;20059;-85
2023/06/26 04:28:57;;;;;;;9.10;7.88;;;21.60;99.90;;;;;;5040331;28;20045;-85
2023/06/26 04:31:22;;;;;;;7.88;7.18;;;21.60;99.90;;;;;;5040814;28;20117;-85
2023/06/26 04:33:50;;;;;;;8.85;7.38;;;21.60;99.90;;;;;;5024360;28;20038;-85
2023/06/26 04:36:19;;;;;;;9.35;7.50;;;21.70;99.90;;;;;;5041931;28;20056;-84
2023/06/26 04:38:49;;;;;;;15.70;7.07;;;21.80;99.90;;;;;;5041069;28;20061;-86
2023/06/26 04:44:32;;;;;;;10.48;6.22;;;22.00;99.90;;;;;;5061354;28;20096;-84
2023/06/26 04:46:58;;;;;;;11.55;6.00;;;22.50;99.90;;;;;;5042586;28;20033;-82
2023/06/26 04:49:24;;;;;;;13.05;6.40;;;22.90;99.90;;;;;;5042222;28;20075;-83
2023/06/26 04:52:05;;;;;;;8.32;5.45;;;23.30;99.90;;;;;;5025466;28;20118;-86
2023/06/26 04:54:30;;;;;;;11.40;6.45;;;23.40;99.90;;;;;;5044723;28;20102;-84
2023/06/26 04:56:56;;;;;;;9.27;6.50;;;23.10;99.90;;;;;;5039411;28;20446;-86
2023/06/26 04:59:22;;;;;;;17.17;6.60;;;22.90;99.90;;;;;;5041048;28;20047;-86
2023/06/26 05:01:48;;;;;;;11.80;6.03;;;22.70;99.90;;;;;;5044093;28;20487;-84
2023/06/26 05:04:23;;;;;;;14.02;6.47;;;22.60;99.90;;;;;;5042308;28;20156;-85
2023/06/26 05:06:48;;;;;;;;;;;22.50;99.90;;;;;;5043868;28;20036;-85
2023/06/26 05:09:14;;;;;;;10.07;6.25;;;22.60;99.90;;;;;;5046704;28;19917;-86
2023/06/26 05:11:40;;;;;;;13.60;6.13;;;23.00;99.90;;;;;;5041989;28;20041;-84
2023/06/26 05:14:09;;;;;;;16.23;7.45;;;22.60;99.90;;;;;;5042461;28;20044;-84
2023/06/26 05:16:35;;;;;;;14.15;7.28;;;22.50;99.90;;;;;;5046148;28;20029;-83
2023/06/26 05:19:01;;;;;;;10.48;5.32;;;22.30;99.90;;;;;;5044576;28;20033;-83
2023/06/26 05:21:28;;;;;;;15.70;6.82;;;22.20;99.90;;;;;;5042558;28;20110;-86
2023/06/26 05:23:59;;;;;;;13.52;6.93;;;22.20;99.90;;;;;;5029005;28;20059;-84
2023/06/26 05:26:26;;;;;;;11.38;6.03;;;22.00;99.90;;;;;;5044607;28;20067;-84
2023/06/26 05:28:52;;;;;;;9.43;6.25;;;21.90;99.90;;;;;;5052522;28;20083;-84
2023/06/26 05:31:18;;;;;;;12.43;6.95;;;21.80;99.90;;;;;;5052562;28;20033;-82
2023/06/26 05:33:47;;;;;;;12.02;6.30;;;21.80;99.90;;;;;;5037350;28;20067;-83
2023/06/26 05:36:15;;;;;;;11.43;6.40;;;21.70;99.90;;;;;;5053431;28;20041;-82
2023/06/26 05:38:41;;;;;;;11.38;6.55;;;21.70;99.90;;;;;;5055242;28;20044;-84
2023/06/26 05:41:07;;;;;;;13.45;6.18;;;21.60;99.90;;;;;;5044452;28;20063;-84
2023/06/26 05:43:33;;;;;;;14.98;7.05;;;21.50;99.90;;;;;;5050087;28;20045;-84
2023/06/26 05:45:58;;;;;;;12.55;5.63;;;21.50;99.90;;;;;;5053277;28;20041;-84
2023/06/26 05:48:24;;;;;;;11.63;7.22;;;21.40;99.90;;;;;;5049404;28;20047;-83
2023/06/26 05:50:50;;;;;;;11.82;4.88;;;21.50;99.90;;;;;;5049544;28;20038;-84
2023/06/26 05:53:15;;;;;;;8.63;5.13;;;21.50;99.90;;;;;;5050162;28;20041;-85
2023/06/26 05:55:42;;;;;;;11.20;5.28;;;21.50;99.90;;;;;;5048991;28;20472;-84
2023/06/26 05:58:10;;;;;;;9.65;3.90;;;21.60;99.90;;;;;;5050652;28;20491;-84
2023/06/26 06:00:36;;;;;;;5.53;2.83;;;21.70;99.90;;;;;;5048344;28;20056;-83
2023/06/26 06:03:02;;;;;;;5.63;2.78;;;21.90;99.90;;;;;;5052926;28;20048;-84
2023/06/26 06:05:28;;;;;;;9.05;3.08;;;22.20;99.90;;;;;;5034360;28;20049;-84
2023/06/26 06:07:53;;;;;;;9.23;2.40;;;22.40;99.90;;;;;;5045845;28;20045;-84
2023/06/26 06:10:19;;;;;;;10.00;2.90;;;22.70;99.90;;;;;;5053030;28;20056;-84
2023/06/26 06:12:44;;;;;;;4.38;2.22;;;23.00;99.90;;;;;;5042092;28;20054;-84
2023/06/26 06:15:10;;;;;;;6.38;2.75;;;23.50;99.90;;;;;;5046090;28;20037;-84
2023/06/26 06:17:35;;;;;;;5.25;2.45;;;23.70;99.90;;;;;;5053015;28;20037;-84
2023/06/26 06:20:02;;;;;;;5.78;2.00;;;24.10;99.90;;;;;;5049184;28;20829;-84
2023/06/26 06:22:28;;;;;;;8.77;2.63;;;24.50;99.90;;;;;;5049965;28;20041;-84
2023/06/26 06:24:53;;;;;;;2.75;1.40;;;24.70;99.90;;;;;;5046765;28;20040;-84
2023/06/26 06:27:19;;;;;;;7.03;2.42;;;25.10;99.90;;;;;;5034751;28;20047;-84
2023/06/26 06:29:44;;;;;;;4.57;2.15;;;25.30;99.90;;;;;;5046647;28;20098;-85
2023/06/26 06:32:10;;;;;;;4.07;1.80;;;25.30;99.90;;;;;;5051301;28;20055;-85
2023/06/26 06:34:36;;;;;;;6.38;2.05;;;25.30;99.90;;;;;;5050198;28;20083;-84
2023/06/26 06:37:02;;;;;;;6.90;2.72;;;25.40;99.90;;;;;;5029937;28;20419;-84
2023/06/26 06:39:28;;;;;;;8.10;2.30;;;25.40;99.90;;;;;;5048388;28;20091;-84
2023/06/26 06:41:54;;;;;;;9.18;1.63;;;25.50;99.90;;;;;;5044133;28;20037;-85
2023/06/26 06:44:19;;;;;;;13.27;1.90;;;25.40;99.90;;;;;;5028363;28;20036;-84
2023/06/26 06:46:45;;;;;;;6.88;1.88;;;25.40;99.90;;;;;;5044442;28;20066;-85
2023/06/26 06:49:10;;;;;;;5.50;1.40;;;25.40;99.90;;;;;;5048847;28;20041;-83
2023/06/26 06:51:36;;;;;;;6.70;1.55;;;25.30;99.90;;;;;;5050878;28;20060;-82
2023/06/26 06:54:02;;;;;;;7.22;1.55;;;25.30;99.90;;;;;;5045280;28;20654;-83
2023/06/26 06:56:27;;;;;;;8.10;1.98;;;25.30;99.90;;;;;;5031371;28;20043;-83
2023/06/26 06:58:53;;;;;;;7.75;1.45;;;25.50;99.90;;;;;;5048095;28;20044;-83
2023/06/26 07:01:18;;;;;;;5.40;1.85;;;25.60;99.90;;;;;;5045941;28;20037;-82
2023/06/26 07:03:44;;;;;;;4.05;1.48;;;26.00;99.90;;;;;;5046818;28;20048;-83
2023/06/26 07:06:09;;;;;;;9.68;1.92;;;26.10;99.90;;;;;;5045194;28;20438;-83
2023/06/26 07:08:41;;;;;;;3.35;1.42;;;26.40;99.90;;;;;;5048269;28;20406;-82
2023/06/26 07:11:06;;;;;;;4.32;1.58;;;26.50;99.90;;;;;;5031785;28;20041;-84
2023/06/26 07:13:32;;;;;;;7.05;2.25;;;26.80;99.90;;;;;;5046110;28;20556;-82
2023/06/26 07:15:58;;;;;;;6.78;1.70;;;26.70;99.90;;;;;;5045810;28;20029;-82
2023/06/26 07:18:23;;;;;;;3.90;1.27;;;26.70;99.90;;;;;;5032244;28;20044;-84
2023/06/26 07:21:15;;;;;;;5.13;2.08;;;26.70;99.90;;;;;;5045904;28;20037;-83
2023/06/26 07:23:44;;;;;;;7.97;2.25;;;26.70;99.90;;;;;;5024556;28;20049;-84
2023/06/26 07:26:15;;;;;;;5.35;1.95;;;27.00;99.90;;;;;;5025908;28;20036;-83
2023/06/26 07:28:40;;;;;;;4.10;1.38;;;27.30;99.90;;;;;;5047182;28;20049;-84
2023/06/26 07:31:06;;;;;;;5.60;1.50;;;27.10;99.10;;;;;;5044068;28;20121;-84
2023/06/26 07:33:31;;;;;;;3.20;1.02;;;27.00;98.50;;;;;;5049650;28;20045;-84
2023/06/26 07:35:57;;;;;;;2.50;1.35;;;27.10;99.10;;;;;;5045683;28;20037;-84
2023/06/26 07:38:22;;;;;;;4.57;1.02;;;27.40;98.70;;;;;;5045216;28;20399;-85
2023/06/26 07:40:48;;;;;;;4.45;1.35;;;27.30;98.40;;;;;;5039575;28;20045;-84
2023/06/26 07:43:14;;;;;;;8.13;1.48;;;27.30;98.20;;;;;;5048487;28;20045;-85
2023/06/26 07:45:39;;;;;;;3.03;1.02;;;27.30;97.30;;;;;;5045811;28;20484;-84
2023/06/26 07:48:05;;;;;;;4.03;1.17;;;27.30;97.00;;;;;;5045148;28;20039;-84
2023/06/26 07:50:31;;;;;;;5.70;1.23;;;27.20;96.90;;;;;;5047390;28;20041;-84
2023/06/26 07:52:57;;;;;;;3.67;1.45;;;27.10;97.20;;;;;;5045265;28;20044;-84
2023/06/26 07:55:22;;;;;;;3.97;1.05;;;27.40;97.00;;;;;;5045051;28;20042;-84
2023/06/26 07:57:50;;;;;;;6.82;1.30;;;27.10;97.00;;;;;;5043255;28;20041;-85
2023/06/26 08:00:16;;;;;;;8.55;2.05;;;27.10;97.20;;;;;;5025555;28;20129;-83
2023/06/26 08:02:47;;;;;;;6.00;1.20;;;27.00;97.60;;;;;;5043997;28;20499;-85
2023/06/26 08:05:15;;;;;;;3.47;1.33;;;26.90;97.50;;;;;;5041495;28;20043;-85
2023/06/26 08:07:41;;;;;;;3.47;1.05;;;26.60;97.50;;;;;;5030310;28;20113;-84
2023/06/26 08:10:06;;;;;;;3.28;0.82;;;26.40;97.80;;;;;;5044703;28;20179;-84
2023/06/26 08:12:32;;;;;;;3.45;1.25;;;26.20;97.90;;;;;;5029131;28;20442;-84
2023/06/26 08:14:57;;;;;;;4.93;1.05;;;26.00;98.10;;;;;;5040892;28;20444;-83
2023/06/26 08:17:24;;;;;;;2.20;0.70;;;26.00;98.10;;;;;;5041309;28;20091;-85
2023/06/26 08:19:50;;;;;;;3.00;0.88;;;26.20;98.30;;;;;;5031036;28;20893;-85
2023/06/26 08:22:15;;;;;;;5.28;0.85;;;26.60;98.60;;;;;;5046701;28;20044;-84
2023/06/26 08:24:41;;;;;;;2.83;1.15;;;26.30;97.80;;;;;;5043999;28;20045;-85
2023/06/26 08:27:07;;;;;;;4.55;1.27;;;26.60;97.80;;;;;;5012181;28;20534;-83
2023/06/26 08:29:33;;;;;;;4.47;1.73;;;26.60;97.90;;;;;;5044134;28;20044;-84
2023/06/26 08:31:59;;;;;;;9.30;1.58;;;26.70;98.10;;;;;;5043866;28;20049;-85
2023/06/26 08:34:24;;;;;;;5.45;1.42;;;26.60;98.00;;;;;;5047289;28;20040;-83
2023/06/26 08:36:50;;;;;;;6.15;1.50;;;26.50;98.10;;;;;;5044791;28;20044;-86
2023/06/26 08:39:16;;;;;;;3.30;1.15;;;26.70;98.00;;;;;;5044113;28;20450;-84
2023/06/26 08:41:42;;;;;;;8.43;1.02;;;26.50;97.40;;;;;;5045169;28;20061;-85
2023/06/26 08:44:07;;;;;;;5.50;1.38;;;26.50;96.90;;;;;;5028718;28;20037;-83
2023/06/26 08:46:33;;;;;;;3.38;1.15;;;26.40;97.30;;;;;;5039512;28;20630;-85
2023/06/26 08:49:26;;;;;;;9.50;1.50;;;26.40;97.70;;;;;;5037783;28;20450;-84
2023/06/26 08:52:17;;;;;;;5.30;2.17;;;26.40;97.30;;;;;;5043801;28;20080;-84
2023/06/26 08:54:52;;;;;;;6.03;0.98;;;26.00;96.80;;;;;;5039655;28;20060;-84
2023/06/26 08:57:19;;;;;;;;;;;25.80;98.30;;;;;;5046084;28;21008;-84
2023/06/26 08:59:46;;;;;;;2.88;1.35;;;25.80;97.80;;;;;;5038789;28;19924;-84
2023/06/26 09:02:12;;;;;;;2.33;1.13;;;25.70;97.50;;;;;;5041648;28;20044;-84
2023/06/26 09:04:39;;;;;;;3.58;1.42;;;25.80;98.00;;;;;;5042468;28;20037;-85
2023/06/26 09:07:05;;;;;;;5.57;1.65;;;25.60;98.20;;;;;;5042712;28;20170;-84
2023/06/26 09:09:30;;;;;;;6.95;1.80;;;25.50;98.30;;;;;;5027738;28;20045;-85
2023/06/26 09:11:56;;;;;;;7.18;2.05;;;25.10;98.40;;;;;;5042141;28;20125;-84
2023/06/26 09:14:22;;;;;;;3.22;1.35;;;24.90;98.40;;;;;;5042465;28;20610;-84
2023/06/26 09:16:47;;;;;;;9.75;1.88;;;24.60;98.70;;;;;;5044135;28;20071;-85
2023/06/26 09:19:13;;;;;;;3.58;1.58;;;24.80;99.20;;;;;;5045860;28;20064;-84
2023/06/26 09:21:43;;;;;;;5.18;2.25;;;24.70;98.70;;;;;;5042927;28;20033;-84
2023/06/26 09:24:09;;;;;;;10.13;2.30;;;24.50;98.40;;;;;;5044391;28;20196;-85
2023/06/26 09:26:40;;;;;;;5.20;1.65;;;24.20;98.50;;;;;;5046894;28;20080;-85
2023/06/26 09:29:06;;;;;;;5.78;1.55;;;24.10;99.30;;;;;;5045351;28;20047;-84
2023/06/26 09:31:33;;;;;;;5.15;1.60;;;24.30;99.30;;;;;;5043324;28;20109;-85
2023/06/26 09:33:59;;;;;;;4.50;2.10;;;24.60;99.30;;;;;;5042549;28;20510;-83
2023/06/26 09:36:28;;;;;;;6.35;1.17;;;24.90;99.00;;;;;;5042604;28;20045;-84
2023/06/26 09:38:54;;;;;;;7.65;1.25;;;25.00;98.70;;;;;;5045872;28;20045;-84
2023/06/26 09:41:20;;;;;;;4.72;1.02;;;25.00;98.20;;;;;;5048600;28;21013;-85
2023/06/26 09:43:50;;;;;;;11.65;1.60;;;25.00;98.20;;;;;;5044697;28;20392;-85
2023/06/26 09:46:18;;;;;;;5.20;2.13;;;25.20;97.50;;;;;;5042680;28;20049;-84
2023/06/26 09:48:43;;;;;;;6.95;1.58;;;25.30;97.20;;;;;;5044596;28;20049;-84
2023/06/26 09:51:10;;;;;;;3.13;1.20;;;25.40;97.50;;;;;;5045669;28;20500;-83
2023/06/26 09:53:36;;;;;;;4.70;1.58;;;25.30;97.60;;;;;;5024154;28;20041;-84
2023/06/26 09:56:16;;;;;;;13.50;2.42;;;25.10;97.70;;;;;;5023776;28;20162;-86
2023/06/26 09:58:43;;;;;;;3.97;1.60;;;25.30;98.20;;;;;;5027466;28;20048;-84
2023/06/26 10:01:09;;;;;;;4.82;1.35;;;25.30;97.30;;;;;;5029586;28;20029;-86
2023/06/26 10:03:35;;;;;;;8.15;1.70;;;25.40;97.70;;;;;;5046714;28;20090;-84
2023/06/26 10:06:02;;;;;;;6.63;1.27;;;25.40;97.50;;;;;;5043263;28;20048;-84
2023/06/26 10:08:28;;;;;;;6.47;1.27;;;25.60;96.20;;;;;;5030485;28;20616;-83
2023/06/26 10:10:55;;;;;;;9.55;1.75;;;25.50;96.00;;;;;;5043501;28;20045;-83
2023/06/26 10:13:31;;;;;;;8.07;1.30;;;25.50;95.50;;;;;;5045952;28;20116;-87
2023/06/26 10:16:00;;;;;;;14.80;1.65;;;25.20;95.30;;;;;;5047283;28;20396;-83
2023/06/26 10:18:27;;;;;;;9.52;1.65;;;25.20;96.10;;;;;;5046726;28;21220;-84
2023/06/26 10:20:56;;;;;;;7.53;1.65;;;25.00;96.40;;;;;;5050200;28;20033;-83
2023/06/26 10:23:24;;;;;;;5.82;1.75;;;24.70;96.20;;;;;;5051733;28;20036;-84
2023/06/26 10:25:51;;;;;;;19.38;2.67;;;24.60;96.40;;;;;;5040529;28;20037;-85
2023/06/26 10:28:19;;;;;;;3.92;1.40;;;24.50;96.80;;;;;;5050385;28;20430;-85
2023/06/26 10:30:47;;;;;;;9.75;1.15;;;24.60;97.30;;;;;;5051703;28;20048;-84
2023/06/26 10:33:14;;;;;;;6.13;1.13;;;24.90;97.70;;;;;;5051537;28;20029;-86
2023/06/26 10:35:44;;;;;;;7.82;0.90;;;25.20;96.50;;;;;;5052191;28;20116;-84
2023/06/26 10:38:10;;;;;;;7.18;1.40;;;25.40;95.60;;;;;;5048086;28;20099;-84
2023/06/26 10:40:44;;;;;;;8.32;1.90;;;25.20;95.10;;;;;;5052076;28;20598;-84
2023/06/26 10:43:12;;;;;;;12.30;1.83;;;25.10;95.70;;;;;;5044997;28;20095;-85
2023/06/26 10:45:44;;;;;;;9.10;1.55;;;25.20;96.00;;;;;;5051055;28;20110;-85
2023/06/26 10:48:09;;;;;;;50.95;4.80;;;25.40;95.30;;;;;;5050264;28;20514;-84
2023/06/26 10:50:35;;;;;;;20.25;2.00;;;25.70;96.70;;;;;;5035793;28;20037;-84
2023/06/26 10:53:24;;;;;;;9.65;1.20;;;26.00;96.70;;;;;;5053064;28;20029;-85
2023/06/26 10:55:59;;;;;;;5.60;1.05;;;25.90;95.40;;;;;;5052932;28;20067;-84
2023/06/26 10:58:31;;;;;;;5.47;1.30;;;25.90;94.90;;;;;;5052262;28;20040;-85
2023/06/26 11:01:15;;;;;;;6.85;1.13;;;25.80;95.60;;;;;;5047479;28;20045;-83
2023/06/26 11:03:44;;;;;;;5.28;1.45;;;25.60;95.10;;;;;;5047073;28;20048;-84
2023/06/26 11:06:10;;;;;;;14.18;2.38;;;25.70;94.40;;;;;;5053077;28;20037;-84
2023/06/26 11:09:03;;;;;;;23.17;2.65;;;25.60;94.90;;;;;;5037949;28;20903;-83
2023/06/26 11:11:51;;;;;;;13.27;1.40;;;25.70;95.80;;;;;;5043810;28;20519;-83
2023/06/26 11:14:17;;;;;;;10.88;1.85;;;25.80;94.70;;;;;;5053014;28;20499;-84
2023/06/26 11:16:43;;;;;;;15.68;2.30;;;25.90;94.60;;;;;;5049284;28;20033;-86
2023/06/26 11:19:10;;;;;;;45.95;4.40;;;26.00;93.60;;;;;;5051522;28;20075;-84
2023/06/26 11:21:38;;;;;;;23.73;2.65;;;25.90;94.20;;;;;;5036237;28;20049;-84
2023/06/26 11:24:06;;;;;;;19.23;2.63;;;25.90;93.30;;;;;;5039124;28;20102;-84
2023/06/26 11:26:38;;;;;;;19.95;1.65;;;25.80;93.20;;;;;;5051947;28;20418;-84
2023/06/26 11:29:04;;;;;;;5.13;1.38;;;25.50;93.40;;;;;;5050939;28;20446;-85
2023/06/26 11:31:35;;;;;;;6.43;1.10;;;25.40;93.80;;;;;;5053692;28;20033;-84
2023/06/26 11:34:03;;;;;;;8.80;2.03;;;25.20;94.40;;;;;;5036848;28;20480;-84
2023/06/26 11:36:30;;;;;;;8.45;1.38;;;25.50;94.70;;;;;;5049890;28;20112;-85
2023/06/26 11:39:00;;;;;;;6.80;1.67;;;25.60;95.90;;;;;;5016805;28;20052;-85
2023/06/26 11:41:30;;;;;;;15.18;1.80;;;25.60;95.00;;;;;;5049658;28;20053;-84
2023/06/26 11:44:01;;;;;;;12.40;1.02;;;25.80;94.50;;;;;;5036987;28;20037;-85
2023/06/26 11:46:27;;;;;;;11.88;0.88;;;25.80;93.90;;;;;;5048420;28;20052;-85
2023/06/26 11:48:54;;;;;;;22.02;2.00;;;25.90;93.90;;;;;;5033302;28;20704;-83
2023/06/26 11:51:19;;;;;;;37.10;3.22;;;25.70;92.60;;;;;;5039706;28;20395;-86
2023/06/26 11:53:47;;;;;;;33.60;2.78;;;25.70;92.70;;;;;;5032156;28;20049;-85
2023/06/26 11:56:17;;;;;;;25.73;3.53;;;25.70;92.50;;;;;;5044788;28;20040;-84
2023/06/26 11:58:55;;;;;;;43.45;3.38;;;25.50;92.00;;;;;;5046672;28;20530;-86
2023/06/26 12:01:22;;;;;;;11.13;1.27;;;25.30;92.90;;;;;;5044260;28;20403;-85
2023/06/26 12:03:49;;;;;;;4.15;1.30;;;25.20;92.10;;;;;;5044562;28;20049;-84
2023/06/26 12:06:15;;;;;;;5.80;1.27;;;25.10;91.90;;;;;;5045644;28;20045;-83
2023/06/26 12:08:41;;;;;;;6.30;1.00;;;24.90;92.50;;;;;;5044254;28;20159;-82
2023/06/26 12:11:07;;;;;;;3.78;1.02;;;24.80;93.00;;;;;;5026155;28;20053;-83
2023/06/26 12:13:33;;;;;;;6.45;1.00;;;24.80;93.40;;;;;;5046138;28;20049;-82
2023/06/26 12:15:59;;;;;;;6.65;1.73;;;24.80;93.50;;;;;;5046093;28;20047;-84
2023/06/26 12:18:26;;;;;;;9.38;1.25;;;24.90;93.80;;;;;;5028957;28;20048;-84
2023/06/26 12:20:52;;;;;;;6.78;1.27;;;25.00;92.70;;;;;;5050007;28;20053;-84
2023/06/26 12:23:17;;;;;;;6.53;1.20;;;25.10;93.40;;;;;;5045055;28;21039;-84
2023/06/26 12:25:43;;;;;;;8.43;1.30;;;25.20;94.10;;;;;;5045958;28;20127;-84
2023/06/26 12:28:19;;;;;;;17.85;2.10;;;25.30;92.90;;;;;;5045106;28;20091;-83
2023/06/26 12:31:17;;;;;;;6.15;1.23;;;25.20;92.00;;;;;;5044183;28;20049;-84
2023/06/26 12:33:45;;;;;;;5.88;1.00;;;25.10;92.50;;;;;;5044929;28;20048;-82
2023/06/26 12:36:14;;;;;;;39.72;3.40;;;25.30;93.10;;;;;;5043912;28;20040;-84
2023/06/26 12:38:41;;;;;;;17.85;2.28;;;25.40;92.40;;;;;;5043647;28;20048;-84
2023/06/26 12:41:13;;;;;;;15.82;1.30;;;25.30;92.10;;;;;;5045518;28;20102;-83
2023/06/26 12:43:39;;;;;;;8.80;0.80;;;25.20;92.30;;;;;;5063119;28;20033;-83
2023/06/26 12:46:05;;;;;;;4.25;0.85;;;25.20;92.20;;;;;;5045803;28;20064;-81
2023/06/26 12:48:48;;;;;;;7.75;1.30;;;25.10;92.50;;;;;;5046580;28;20196;-81